Northfork, WV (24868)

1:31 PM EDT on July 29, 2016 (GMT -0400)
Parkview Heights | | Change Station

Elev 2402 ft 37.24 °N, 81.28 °W | Updated 1 second ago

Mostly Cloudy
Mostly Cloudy
77.4 °F
Feels Like 79 °F
N
3.0
Wind Variable Wind from West
Gusts 7.0 mph

Today
High -- | Low -- °F
--% Chance of Precip.
Yesterday
High -- | Low -- °F
Precip. -- in
Pressure 30.09 in
Visibility 10.0 miles
Clouds Few 1700 ft
Mostly Cloudy 3900 ft
Mostly Cloudy 4700 ft
Heat Index 79 °F
Dew Point 68 °F
Humidity 74%
Rainfall 0.05 in
Snow Depth Not available.
6:27 AM 8:35 PM
Waning Crescent, 20% visible
SPECI KBLF 291709Z AUTO VRB06KT 10SM FEW017 BKN039 BKN047 23/18 A3009 RMK AO2 T02330183
Pressure 30.09 in
Visibility 10.0 miles
Clouds Few 1700 ft
Mostly Cloudy 3900 ft
Mostly Cloudy 4700 ft
Heat Index 79 °F
Dew Point 68 °F
Humidity 74%
Rainfall 0.05 in
Snow Depth Not available.
6:27 AM 8:35 PM
Waning Crescent, 20% visible
SPECI KBLF 291709Z AUTO VRB06KT 10SM FEW017 BKN039 BKN047 23/18 A3009 RMK AO2 T02330183

10-Day Weather Forecast

Almanac

Astronomy

Jul. 29, 2016 Rise Set
Actual Time
Civil Twilight
Nautical Twilight
Astronomical Twilight
Moon
Length of Visible Light
Length of Day
Tomorrow will be .
, % of the Moon is Illuminated

Today's Extremes

State Highs State Lows

Community

WunderPhotos

Upload Photos

1,928,382 photos uploaded!

WunderBlog® & News

Nearby

Air Quality

  Air Quality AQ Index Pollutant
Not available.

Snow Depth

Station Depth Elevation

Earthquake Activity

City Distance Mag. Time & Date
Minimum magnitude displayed is 2.5.

Coastal Water Temperatures

Place Temperature

Stations

Nearby Weather Stations

Station Location Temp. Windchill Dew Point Humidity Wind Precip. Elev Updated Type
                   

Watches & Warnings

There are currently no watches in effect.